createdAt,value
2022-08-07T00:02:46.678Z,8.80
2022-08-07T00:05:53.950Z,9.90
2022-08-07T00:09:07.849Z,9.30
2022-08-07T00:12:23.503Z,9.40
2022-08-07T00:15:38.015Z,11.20
2022-08-07T00:18:53.095Z,9.50
2022-08-07T00:22:02.117Z,8.80
2022-08-07T00:25:16.723Z,9.40
2022-08-07T00:28:23.946Z,8.60
2022-08-07T00:31:42.084Z,8.40
2022-08-07T00:34:49.402Z,9.90
2022-08-07T00:37:57.303Z,7.40
2022-08-07T00:41:04.279Z,10.50
2022-08-07T00:44:16.434Z,8.60
2022-08-07T00:48:08.317Z,10.80
2022-08-07T00:50:51.546Z,8.40
2022-08-07T00:53:58.070Z,8.90
2022-08-07T00:57:06.094Z,7.90
2022-08-07T01:00:15.831Z,8.00
2022-08-07T01:03:54.616Z,9.70
2022-08-07T01:06:49.249Z,9.20
2022-08-07T01:10:06.897Z,8.20
2022-08-07T01:13:17.157Z,9.40
2022-08-07T01:16:30.349Z,7.90
2022-08-07T01:19:38.403Z,7.40
2022-08-07T01:23:00.515Z,8.70
2022-08-07T01:26:13.368Z,9.80
2022-08-07T01:29:23.849Z,9.10
2022-08-07T01:32:34.810Z,9.00
2022-08-07T01:35:53.368Z,8.90
2022-08-07T01:39:01.162Z,9.90
2022-08-07T01:42:39.361Z,6.90
2022-08-07T01:45:36.847Z,8.20
2022-08-07T01:48:47.586Z,10.20
2022-08-07T01:52:01.600Z,8.80
2022-08-07T01:55:22.353Z,11.50
2022-08-07T01:58:33.938Z,9.60
2022-08-07T02:02:01.638Z,8.00
2022-08-07T02:05:16.195Z,8.80
2022-08-07T02:08:42.485Z,8.30
2022-08-07T02:12:03.482Z,8.00
2022-08-07T02:15:13.796Z,7.80
2022-08-07T02:18:22.627Z,7.50
2022-08-07T02:21:55.511Z,9.60
2022-08-07T02:25:07.139Z,7.10
2022-08-07T02:28:25.594Z,8.90
2022-08-07T02:31:34.928Z,7.90
2022-08-07T02:34:48.740Z,9.90
2022-08-07T02:37:59.583Z,8.10
2022-08-07T02:41:07.999Z,9.50
2022-08-07T02:44:18.015Z,10.50
2022-08-07T02:47:25.691Z,11.60
2022-08-07T02:50:34.308Z,8.30
2022-08-07T02:53:46.113Z,8.60
2022-08-07T02:56:53.235Z,12.80
2022-08-07T03:00:04.995Z,8.80
2022-08-07T03:03:22.575Z,8.30
2022-08-07T03:06:33.029Z,8.10
2022-08-07T03:09:45.450Z,9.20
2022-08-07T03:12:53.006Z,8.70
2022-08-07T03:15:59.383Z,10.00
2022-08-07T03:19:09.053Z,10.00
2022-08-07T03:22:18.817Z,8.60
2022-08-07T03:25:26.069Z,8.10
2022-08-07T03:28:42.067Z,9.30
2022-08-07T03:31:52.675Z,7.40
2022-08-07T03:35:17.867Z,10.40
2022-08-07T03:41:41.979Z,8.80
2022-08-07T03:44:58.034Z,7.70
2022-08-07T03:48:10.071Z,8.80
2022-08-07T03:51:20.760Z,7.70
2022-08-07T03:54:36.043Z,12.60
2022-08-07T03:58:33.677Z,8.60
2022-08-07T04:01:22.465Z,9.90
2022-08-07T04:04:28.823Z,9.90
2022-08-07T04:07:42.761Z,8.80
2022-08-07T04:10:54.649Z,8.20
2022-08-07T04:14:37.661Z,8.50
2022-08-07T04:18:58.180Z,10.20
2022-08-07T04:21:13.715Z,8.90
2022-08-07T04:24:34.116Z,9.00
2022-08-07T04:27:59.276Z,9.10
2022-08-07T04:31:07.878Z,9.60
2022-08-07T04:34:27.586Z,9.30
2022-08-07T04:37:40.499Z,9.30
2022-08-07T04:41:07.015Z,10.80
2022-08-07T04:44:18.451Z,10.10
2022-08-07T04:47:58.796Z,10.10
2022-08-07T04:54:30.048Z,10.00
2022-08-07T04:58:16.148Z,8.50
2022-08-07T05:01:19.281Z,9.70
2022-08-07T05:04:32.833Z,9.20
2022-08-07T05:07:48.675Z,8.10
2022-08-07T05:11:06.958Z,10.20
2022-08-07T05:14:55.792Z,10.00
2022-08-07T05:17:52.501Z,8.10
2022-08-07T05:21:04.828Z,10.40
2022-08-07T05:24:17.236Z,8.80
2022-08-07T05:28:02.703Z,8.80
2022-08-07T05:30:52.780Z,13.00
2022-08-07T05:34:01.119Z,8.40
2022-08-07T05:37:11.762Z,10.40
2022-08-07T05:40:20.613Z,8.30
2022-08-07T05:43:49.596Z,8.40
2022-08-07T05:46:54.156Z,7.10
2022-08-07T05:50:01.459Z,8.80
2022-08-07T05:53:07.866Z,10.00
2022-08-07T05:56:35.545Z,7.70
2022-08-07T05:59:57.493Z,8.40
2022-08-07T06:03:07.050Z,8.50
2022-08-07T06:06:18.931Z,9.50
2022-08-07T06:10:04.369Z,9.00
2022-08-07T06:12:52.739Z,10.60
2022-08-07T06:16:02.757Z,9.60
2022-08-07T06:19:18.082Z,9.30
2022-08-07T06:22:40.119Z,9.30
2022-08-07T06:25:54.647Z,9.90
2022-08-07T06:29:04.306Z,10.90
2022-08-07T06:32:13.361Z,9.70
2022-08-07T06:35:19.611Z,9.20
2022-08-07T06:38:28.790Z,9.30
2022-08-07T06:42:02.477Z,8.00
2022-08-07T06:45:12.270Z,10.40
2022-08-07T07:00:17.780Z,5.60
2022-08-07T07:03:39.811Z,8.50
2022-08-07T07:07:00.510Z,7.90
2022-08-07T07:10:08.725Z,5.40
2022-08-07T07:13:41.449Z,6.60
2022-08-07T07:16:53.486Z,6.10
2022-08-07T07:20:03.972Z,6.40
2022-08-07T07:24:08.821Z,6.70
2022-08-07T07:26:39.735Z,8.30
2022-08-07T07:30:07.410Z,6.40
2022-08-07T07:33:19.990Z,4.90
2022-08-07T07:36:32.696Z,8.20
2022-08-07T07:39:52.092Z,6.50
2022-08-07T07:43:15.135Z,7.40
2022-08-07T07:46:40.358Z,6.20
2022-08-07T07:50:34.145Z,6.50
2022-08-07T07:53:25.647Z,4.50
2022-08-07T07:56:33.184Z,10.50
2022-08-07T07:59:52.813Z,7.70
2022-08-07T08:03:08.051Z,9.80
2022-08-07T08:06:16.102Z,6.30
2022-08-07T08:09:24.620Z,6.50
2022-08-07T08:12:52.105Z,6.00
2022-08-07T08:16:01.947Z,7.00
2022-08-07T08:20:15.757Z,11.50
2022-08-07T08:22:58.618Z,6.70
2022-08-07T08:26:25.209Z,10.50
2022-08-07T08:29:37.792Z,7.20
2022-08-07T08:33:04.039Z,9.80
2022-08-07T08:36:13.651Z,9.90
2022-08-07T08:39:22.785Z,6.90
2022-08-07T08:42:33.593Z,7.60
2022-08-07T08:45:59.003Z,9.20
2022-08-07T08:49:13.734Z,7.90
2022-08-07T08:52:23.908Z,6.70
2022-08-07T08:55:54.649Z,7.70
2022-08-07T08:59:13.590Z,9.30
2022-08-07T09:02:35.220Z,5.60
2022-08-07T09:05:49.741Z,8.00
2022-08-07T09:09:09.671Z,5.50
2022-08-07T09:12:53.098Z,4.70
2022-08-07T09:16:24.458Z,5.70
2022-08-07T09:19:55.431Z,8.10
2022-08-07T09:24:33.733Z,6.20
2022-08-07T09:26:51.066Z,6.10
2022-08-07T09:30:08.325Z,6.90
2022-08-07T09:33:41.271Z,6.90
2022-08-07T09:37:10.941Z,4.50
2022-08-07T09:40:25.565Z,6.90
2022-08-07T09:44:05.644Z,6.50
2022-08-07T09:47:52.481Z,6.40
2022-08-07T09:51:05.437Z,7.80
2022-08-07T09:54:36.346Z,6.50
2022-08-07T09:58:32.014Z,8.50
2022-08-07T10:01:59.142Z,6.90
2022-08-07T10:05:59.461Z,6.70
2022-08-07T10:09:34.202Z,6.40
2022-08-07T10:13:03.602Z,5.20
2022-08-07T10:16:24.352Z,5.30
2022-08-07T10:19:54.222Z,4.90
2022-08-07T10:23:13.558Z,6.30
2022-08-07T10:26:38.326Z,7.00
2022-08-07T10:30:07.182Z,5.20
2022-08-07T10:34:05.006Z,5.30
2022-08-07T10:37:12.688Z,3.30
2022-08-07T10:40:30.314Z,4.10
2022-08-07T10:43:43.372Z,5.30
2022-08-07T10:47:01.265Z,4.70
2022-08-07T10:50:12.658Z,3.20
2022-08-07T10:53:41.943Z,8.00
2022-08-07T10:57:04.581Z,3.80
2022-08-07T11:00:36.633Z,3.80
2022-08-07T11:03:53.003Z,4.10
2022-08-07T11:07:24.694Z,4.60
2022-08-07T11:10:52.277Z,9.10
2022-08-07T11:14:45.310Z,3.50
2022-08-07T11:17:45.811Z,5.70
2022-08-07T11:21:04.303Z,3.60
2022-08-07T11:24:19.703Z,6.50
2022-08-07T11:28:01.624Z,5.70
2022-08-07T11:31:04.112Z,2.30
2022-08-07T11:34:23.563Z,4.90
2022-08-07T11:37:58.146Z,5.10
2022-08-07T11:41:30.993Z,4.10
2022-08-07T11:44:58.013Z,6.70
2022-08-07T11:48:32.237Z,3.90
2022-08-07T11:52:04.775Z,4.50
2022-08-07T11:56:11.915Z,2.70
2022-08-07T11:59:02.445Z,2.70
2022-08-07T12:02:30.263Z,6.20
2022-08-07T12:05:50.524Z,6.10
2022-08-07T12:09:16.246Z,5.60
2022-08-07T12:12:36.898Z,5.40
2022-08-07T12:16:06.027Z,5.00
2022-08-07T12:19:21.348Z,3.60
2022-08-07T12:22:47.262Z,4.20
2022-08-07T12:26:29.028Z,6.60
2022-08-07T12:29:40.389Z,7.20
2022-08-07T12:32:53.841Z,5.40
2022-08-07T12:36:02.335Z,5.60
2022-08-07T12:39:43.605Z,4.90
2022-08-07T12:42:38.007Z,4.50
2022-08-07T12:46:15.781Z,4.10
2022-08-07T12:49:51.674Z,3.40
2022-08-07T12:53:18.558Z,4.90
2022-08-07T12:56:32.403Z,6.30
2022-08-07T12:59:54.354Z,5.00
2022-08-07T13:03:27.019Z,4.70
2022-08-07T13:08:13.539Z,2.50
2022-08-07T13:10:59.481Z,4.40
2022-08-07T13:14:17.760Z,3.50
2022-08-07T13:17:34.753Z,5.70
2022-08-07T13:20:51.932Z,3.50
2022-08-07T13:24:07.626Z,3.50
2022-08-07T13:27:22.039Z,4.40
2022-08-07T13:30:39.905Z,4.80
2022-08-07T13:34:34.652Z,4.10
2022-08-07T13:37:27.133Z,6.00
2022-08-07T13:40:42.846Z,6.90
2022-08-07T13:43:52.716Z,4.00
2022-08-07T13:47:04.792Z,2.10
2022-08-07T13:50:36.633Z,3.70
2022-08-07T13:54:00.238Z,4.10
2022-08-07T13:57:14.524Z,4.50
2022-08-07T14:00:54.087Z,3.90
2022-08-07T14:04:07.587Z,3.80
2022-08-07T14:07:15.710Z,4.30
2022-08-07T14:10:28.329Z,4.50
2022-08-07T14:16:53.005Z,7.20
2022-08-07T14:20:39.922Z,4.00
2022-08-07T14:24:00.056Z,3.80
2022-08-07T14:27:16.263Z,3.80
2022-08-07T14:30:34.155Z,4.40
2022-08-07T14:33:44.784Z,3.10
2022-08-07T14:36:55.891Z,5.30
2022-08-07T14:40:18.044Z,3.10
2022-08-07T14:43:58.470Z,5.00
2022-08-07T14:50:28.148Z,4.70
2022-08-07T14:54:03.529Z,6.30
2022-08-07T14:57:08.122Z,8.30
2022-08-07T15:03:52.464Z,6.00
2022-08-07T15:07:00.921Z,3.20
2022-08-07T15:10:11.223Z,3.80
2022-08-07T15:16:55.768Z,4.80
2022-08-07T15:20:32.871Z,4.40
2022-08-07T15:27:15.395Z,4.30
2022-08-07T15:30:21.910Z,5.80
2022-08-07T15:33:33.847Z,7.20
2022-08-07T15:37:03.964Z,4.80
2022-08-07T15:40:33.770Z,5.20
2022-08-07T15:43:55.702Z,3.10
2022-08-07T15:47:16.890Z,4.50
2022-08-07T15:53:58.340Z,3.70
2022-08-07T15:57:10.597Z,3.70
2022-08-07T16:00:38.027Z,4.50
2022-08-07T16:03:57.399Z,9.40
2022-08-07T16:08:31.520Z,6.40
2022-08-07T16:10:37.593Z,5.50
2022-08-07T16:14:00.184Z,7.80
2022-08-07T16:18:01.550Z,3.20
2022-08-07T16:22:01.226Z,4.20
2022-08-07T16:24:35.560Z,4.70
2022-08-07T16:27:57.086Z,4.60
2022-08-07T16:31:50.336Z,3.70
2022-08-07T16:34:48.825Z,5.20
2022-08-07T16:38:15.990Z,4.90
2022-08-07T16:41:48.580Z,5.60
2022-08-07T16:46:34.669Z,4.40
2022-08-07T16:50:28.615Z,3.50
2022-08-07T16:54:01.469Z,7.60
2022-08-07T16:58:01.076Z,6.50
2022-08-07T17:01:15.930Z,6.70
2022-08-07T17:04:36.950Z,6.00
2022-08-07T17:11:14.420Z,3.30
2022-08-07T17:14:31.955Z,4.80
2022-08-07T17:17:46.441Z,5.80
2022-08-07T17:20:54.902Z,5.40
2022-08-07T17:24:23.484Z,8.00
2022-08-07T17:27:50.808Z,11.50
2022-08-07T17:31:16.353Z,9.60
2022-08-07T17:34:34.558Z,8.10
2022-08-07T17:38:06.037Z,5.40
2022-08-07T17:42:04.580Z,3.80
2022-08-07T17:44:54.572Z,4.80
2022-08-07T17:48:10.280Z,8.00
2022-08-07T17:51:23.948Z,8.40
2022-08-07T17:54:55.310Z,7.70
2022-08-07T17:58:05.216Z,4.90
2022-08-07T18:01:21.850Z,9.60
2022-08-07T18:04:36.177Z,6.40
2022-08-07T18:07:47.483Z,7.00
2022-08-07T18:12:06.635Z,8.80
2022-08-07T18:14:45.020Z,8.70
2022-08-07T18:18:45.765Z,7.30
2022-08-07T18:21:53.498Z,5.70
2022-08-07T18:25:19.067Z,4.20
2022-08-07T18:28:58.732Z,6.00
2022-08-07T18:32:17.984Z,6.00
2022-08-07T18:35:51.812Z,5.50
2022-08-07T18:40:06.667Z,5.10
2022-08-07T18:42:46.217Z,6.60
2022-08-07T18:46:24.406Z,6.20
2022-08-07T18:50:31.521Z,7.30
2022-08-07T18:53:39.779Z,7.20
2022-08-07T18:57:29.421Z,6.80
2022-08-07T19:00:33.221Z,6.60
2022-08-07T19:03:52.135Z,6.80
2022-08-07T19:07:03.434Z,7.90
2022-08-07T19:10:21.482Z,8.60
2022-08-07T19:13:37.714Z,10.10
2022-08-07T19:17:07.831Z,10.20
2022-08-07T19:20:29.954Z,9.10
2022-08-07T19:23:58.849Z,8.60
2022-08-07T19:28:57.639Z,6.60
2022-08-07T19:31:06.375Z,7.90
2022-08-07T19:34:04.775Z,8.90
2022-08-07T19:37:17.299Z,8.30
2022-08-07T19:40:31.436Z,7.80
2022-08-07T19:43:49.536Z,7.70
2022-08-07T19:47:10.854Z,9.60
2022-08-07T19:50:44.510Z,6.80
2022-08-07T19:54:34.783Z,7.50
2022-08-07T19:58:04.779Z,6.80
2022-08-07T20:00:55.274Z,8.80
2022-08-07T20:04:03.530Z,6.80
2022-08-07T20:07:13.966Z,10.80
2022-08-07T20:10:55.237Z,8.60
2022-08-07T20:14:03.262Z,8.60
2022-08-07T20:17:14.911Z,11.00
2022-08-07T20:20:26.730Z,7.20
2022-08-07T20:23:42.833Z,10.30
2022-08-07T20:26:56.552Z,8.10
2022-08-07T20:30:07.539Z,8.70
2022-08-07T20:33:24.336Z,7.50
2022-08-07T20:36:51.741Z,10.00
2022-08-07T20:40:03.208Z,8.40
2022-08-07T20:43:19.676Z,10.30
2022-08-07T20:46:32.311Z,8.80
2022-08-07T20:49:59.717Z,11.00
2022-08-07T20:53:11.586Z,10.40
2022-08-07T20:56:25.820Z,12.30
2022-08-07T21:00:06.465Z,9.10
2022-08-07T21:03:03.280Z,9.70
2022-08-07T21:06:25.866Z,10.10
2022-08-07T21:09:53.206Z,10.90
2022-08-07T21:13:06.158Z,8.70
2022-08-07T21:16:14.559Z,8.70
2022-08-07T21:19:32.552Z,10.80
2022-08-07T21:22:55.844Z,10.40
2022-08-07T21:26:18.251Z,7.80
2022-08-07T21:29:33.476Z,9.20
2022-08-07T21:32:54.188Z,7.80
2022-08-07T21:36:11.959Z,9.90
2022-08-07T21:39:46.302Z,11.60
2022-08-07T21:43:00.974Z,9.90
2022-08-07T21:46:31.317Z,10.10
2022-08-07T21:50:01.076Z,8.90
2022-08-07T21:53:14.124Z,7.80
2022-08-07T21:56:39.612Z,7.10
2022-08-07T22:00:04.383Z,9.20
2022-08-07T22:03:18.740Z,7.10
2022-08-07T22:06:31.484Z,7.80
2022-08-07T22:09:54.006Z,10.70
2022-08-07T22:13:03.078Z,8.30
2022-08-07T22:16:44.258Z,7.70
2022-08-07T22:19:57.285Z,8.90
2022-08-07T22:23:13.754Z,8.00
2022-08-07T22:26:25.893Z,7.20
2022-08-07T22:29:47.991Z,8.50
2022-08-07T22:33:07.516Z,8.20
2022-08-07T22:36:26.093Z,8.90
2022-08-07T22:39:52.940Z,7.00
2022-08-07T22:43:11.145Z,10.40
2022-08-07T22:47:05.937Z,7.70
2022-08-07T22:50:48.947Z,7.00
2022-08-07T22:54:09.451Z,7.90
2022-08-07T22:57:37.383Z,7.40
2022-08-07T23:01:06.578Z,10.40
2022-08-07T23:04:36.250Z,8.40
2022-08-07T23:08:23.970Z,6.80
2022-08-07T23:11:49.971Z,7.10
2022-08-07T23:15:10.192Z,9.80
2022-08-07T23:18:32.044Z,6.80
2022-08-07T23:21:46.831Z,8.00
2022-08-07T23:25:10.881Z,8.90
2022-08-07T23:28:30.867Z,9.00
2022-08-07T23:34:20.271Z,6.40
2022-08-07T23:35:23.432Z,9.20
2022-08-07T23:38:43.241Z,8.20
2022-08-07T23:42:21.391Z,8.30
2022-08-07T23:46:03.525Z,8.60
2022-08-07T23:49:50.187Z,7.80
2022-08-07T23:53:08.503Z,7.60
2022-08-07T23:56:35.169Z,6.90
